Aviation Digital Data Service (ADDS)

Output produced by METARs form (0206 UTC 22 April 2019)
found at http://www.aviationweather.gov/metar/data/
 
Forecast for: ETNL (LAAGE , DE)
Text: TAF ETNL 212228Z 2123/2211 08007KT 9999 NSW FEW300 BY ETGL
Forecast period: 2300 UTC 21 April 2019 to 1100 UTC 22 April 2019
Forecast type: FROM: standard forecast or significant change
Winds: from the E (80 degrees) at 8 MPH (7 knots; 3.6 m/s)
Visibility: 6 or more miles 10+ km)
Ceiling: at least 12,000 feet AGL
Clouds: few clouds at 30000 feet AGL
Weather: NSW  (no significant weather)